createdAt,value
2022-10-10T00:01:43.423Z,3.00
2022-10-10T00:04:11.962Z,2.35
2022-10-10T00:06:41.811Z,3.42
2022-10-10T00:09:10.322Z,2.53
2022-10-10T00:11:38.817Z,2.33
2022-10-10T00:14:07.419Z,2.83
2022-10-10T00:16:35.898Z,2.70
2022-10-10T00:19:04.445Z,2.60
2022-10-10T00:21:32.990Z,2.17
2022-10-10T00:24:02.997Z,2.80
2022-10-10T00:26:31.432Z,2.63
2022-10-10T00:28:59.931Z,2.20
2022-10-10T00:31:28.373Z,2.75
2022-10-10T00:33:56.902Z,2.55
2022-10-10T00:36:25.495Z,3.20
2022-10-10T00:38:54.072Z,2.75
2022-10-10T00:41:24.206Z,2.05
2022-10-10T00:44:09.757Z,2.17
2022-10-10T00:46:38.694Z,2.13
2022-10-10T00:49:11.589Z,2.72
2022-10-10T00:51:40.139Z,1.98
2022-10-10T00:54:11.553Z,2.22
2022-10-10T00:56:45.391Z,2.50
2022-10-10T00:59:13.917Z,2.83
2022-10-10T01:01:42.876Z,2.70
2022-10-10T01:04:30.734Z,2.33
2022-10-10T01:07:02.663Z,2.70
2022-10-10T01:09:32.275Z,2.42
2022-10-10T01:12:15.264Z,2.90
2022-10-10T01:14:53.841Z,3.88
2022-10-10T01:17:28.576Z,2.58
2022-10-10T01:20:35.336Z,2.88
2022-10-10T01:23:29.047Z,2.35
2022-10-10T01:26:13.761Z,3.05
2022-10-10T01:28:51.691Z,2.97
2022-10-10T01:31:24.280Z,3.22
2022-10-10T01:34:02.279Z,2.15
2022-10-10T01:36:39.549Z,2.67
2022-10-10T01:39:14.706Z,1.98
2022-10-10T01:41:50.594Z,3.17
2022-10-10T01:44:22.491Z,2.78
2022-10-10T01:46:51.021Z,2.47
2022-10-10T01:49:19.983Z,2.50
2022-10-10T01:52:03.573Z,2.95
2022-10-10T01:54:42.859Z,2.63
2022-10-10T01:57:21.075Z,2.30
2022-10-10T02:00:02.164Z,3.10
2022-10-10T02:02:50.308Z,2.47
2022-10-10T02:05:26.015Z,2.20
2022-10-10T02:07:58.559Z,2.97
2022-10-10T02:10:33.334Z,2.70
2022-10-10T02:13:03.923Z,2.20
2022-10-10T02:15:41.044Z,3.15
2022-10-10T02:18:12.724Z,2.60
2022-10-10T02:20:43.183Z,2.30
2022-10-10T02:23:15.433Z,3.58
2022-10-10T02:25:45.893Z,3.33
2022-10-10T02:28:18.533Z,2.95
2022-10-10T02:30:52.636Z,3.00
2022-10-10T02:33:27.242Z,3.10
2022-10-10T02:35:56.338Z,3.90
2022-10-10T02:38:26.028Z,1.90
2022-10-10T02:40:55.918Z,3.65
2022-10-10T02:43:24.658Z,2.50
2022-10-10T02:45:54.726Z,2.75
2022-10-10T02:48:23.256Z,2.60
2022-10-10T02:50:51.696Z,2.50
2022-10-10T02:53:20.184Z,2.92
2022-10-10T02:55:48.657Z,3.05
2022-10-10T02:58:20.643Z,2.45
2022-10-10T03:00:51.739Z,2.45
2022-10-10T03:03:21.722Z,2.45
2022-10-10T03:05:50.915Z,2.40
2022-10-10T03:08:19.854Z,2.85
2022-10-10T03:10:56.996Z,3.08
2022-10-10T03:13:25.972Z,2.85
2022-10-10T03:15:54.951Z,2.83
2022-10-10T03:18:25.598Z,2.78
2022-10-10T03:20:56.210Z,2.75
2022-10-10T03:23:26.043Z,3.10
2022-10-10T03:25:55.009Z,3.05
2022-10-10T03:28:23.868Z,2.80
2022-10-10T03:30:52.692Z,3.22
2022-10-10T03:33:22.017Z,3.15
2022-10-10T03:35:52.133Z,3.60
2022-10-10T03:38:20.876Z,3.33
2022-10-10T03:40:49.426Z,2.42
2022-10-10T03:43:18.095Z,2.30
2022-10-10T03:45:47.730Z,2.67
2022-10-10T03:48:16.651Z,2.28
2022-10-10T03:50:45.466Z,2.90
2022-10-10T03:53:15.496Z,2.90
2022-10-10T03:55:44.512Z,3.17
2022-10-10T03:58:13.315Z,2.58
2022-10-10T04:00:41.898Z,2.88
2022-10-10T04:03:10.580Z,3.00
2022-10-10T04:05:40.250Z,2.00
2022-10-10T04:08:08.889Z,2.60
2022-10-10T04:10:38.891Z,2.97
2022-10-10T04:13:07.580Z,3.30
2022-10-10T04:15:36.291Z,2.80
2022-10-10T04:18:05.080Z,3.63
2022-10-10T04:20:34.244Z,3.70
2022-10-10T04:23:02.800Z,3.13
2022-10-10T04:25:31.437Z,3.30
2022-10-10T04:28:01.612Z,3.60
2022-10-10T04:30:33.301Z,3.80
2022-10-10T04:33:02.253Z,3.05
2022-10-10T04:35:30.899Z,4.00
2022-10-10T04:37:59.527Z,2.38
2022-10-10T04:40:30.920Z,3.88
2022-10-10T04:43:01.050Z,2.85
2022-10-10T04:45:31.896Z,3.80
2022-10-10T04:48:03.998Z,3.38
2022-10-10T04:50:34.057Z,4.10
2022-10-10T04:53:02.679Z,2.95
2022-10-10T04:55:34.158Z,2.97
2022-10-10T04:58:04.484Z,2.92
2022-10-10T05:00:33.094Z,3.20
2022-10-10T05:03:01.784Z,3.58
2022-10-10T05:05:30.546Z,3.83
2022-10-10T05:07:59.332Z,3.15
2022-10-10T05:10:27.849Z,4.20
2022-10-10T05:12:56.491Z,3.83
2022-10-10T05:15:27.130Z,3.47
2022-10-10T05:17:55.720Z,3.90
2022-10-10T05:20:24.459Z,3.58
2022-10-10T05:22:53.592Z,3.75
2022-10-10T05:25:22.498Z,4.20
2022-10-10T05:27:51.186Z,2.70
2022-10-10T05:30:20.216Z,3.70
2022-10-10T05:32:50.655Z,3.30
2022-10-10T05:35:19.769Z,3.28
2022-10-10T05:37:48.389Z,3.20
2022-10-10T05:40:17.070Z,3.83
2022-10-10T05:42:45.725Z,3.00
2022-10-10T05:45:14.254Z,4.60
2022-10-10T05:47:42.878Z,4.47
2022-10-10T05:50:31.066Z,3.13
2022-10-10T05:52:59.809Z,3.92
2022-10-10T05:55:28.497Z,3.70
2022-10-10T05:57:57.539Z,4.00
2022-10-10T06:00:26.273Z,3.80
2022-10-10T06:02:55.307Z,4.00
2022-10-10T06:05:25.992Z,4.32
2022-10-10T06:08:12.086Z,4.25
2022-10-10T06:10:43.168Z,4.65
2022-10-10T06:13:12.373Z,4.55
2022-10-10T06:15:41.121Z,3.75
2022-10-10T06:18:10.506Z,3.92
2022-10-10T06:20:42.119Z,3.65
2022-10-10T06:23:10.911Z,4.85
2022-10-10T06:25:41.175Z,3.75
2022-10-10T06:28:11.111Z,4.18
2022-10-10T06:30:43.922Z,3.78
2022-10-10T06:33:15.216Z,3.58
2022-10-10T06:35:46.100Z,3.90
2022-10-10T06:38:16.359Z,4.30
2022-10-10T06:40:45.403Z,4.05
2022-10-10T06:43:16.031Z,3.60
2022-10-10T06:45:46.601Z,3.83
2022-10-10T06:48:19.320Z,4.10
2022-10-10T06:50:59.829Z,3.72
2022-10-10T06:53:28.865Z,4.13
2022-10-10T06:55:57.772Z,3.95
2022-10-10T06:58:28.118Z,3.70
2022-10-10T07:00:59.367Z,3.70
2022-10-10T07:03:28.981Z,3.50
2022-10-10T07:06:00.722Z,3.80
2022-10-10T07:08:30.004Z,3.97
2022-10-10T07:10:58.581Z,3.95
2022-10-10T07:13:27.244Z,5.15
2022-10-10T07:15:55.918Z,3.40
2022-10-10T07:18:24.675Z,3.08
2022-10-10T07:20:59.389Z,4.15
2022-10-10T07:23:29.147Z,4.05
2022-10-10T07:26:01.764Z,3.83
2022-10-10T07:28:31.217Z,4.53
2022-10-10T07:31:05.428Z,4.90
2022-10-10T07:33:34.330Z,3.80
2022-10-10T07:36:04.764Z,3.70
2022-10-10T07:38:33.380Z,3.67
2022-10-10T07:41:02.107Z,4.97
2022-10-10T07:43:30.754Z,5.22
2022-10-10T07:48:33.426Z,4.75
2022-10-10T07:51:06.881Z,4.65
2022-10-10T07:53:35.734Z,4.07
2022-10-10T07:56:05.943Z,4.23
2022-10-10T07:58:35.513Z,3.60
2022-10-10T08:01:04.820Z,3.73
2022-10-10T08:03:33.872Z,3.90
2022-10-10T08:06:06.693Z,4.73
2022-10-10T08:08:42.776Z,4.07
2022-10-10T08:11:18.448Z,4.80
2022-10-10T08:13:47.260Z,3.77
2022-10-10T08:16:16.152Z,4.37
2022-10-10T08:18:44.864Z,3.93
2022-10-10T08:21:16.834Z,3.27
2022-10-10T08:23:45.543Z,3.80
2022-10-10T08:26:15.738Z,3.40
2022-10-10T08:28:45.084Z,3.57
2022-10-10T08:31:15.583Z,3.30
2022-10-10T08:33:46.112Z,3.83
2022-10-10T08:36:18.053Z,3.70
2022-10-10T08:38:47.448Z,3.40
2022-10-10T08:41:25.358Z,3.57
2022-10-10T08:43:58.148Z,3.80
2022-10-10T08:46:36.033Z,3.50
2022-10-10T08:49:17.812Z,3.70
2022-10-10T08:51:52.887Z,3.50
2022-10-10T08:54:24.443Z,2.87
2022-10-10T08:56:53.934Z,3.10
2022-10-10T08:59:27.682Z,3.30
2022-10-10T09:02:17.576Z,3.60
2022-10-10T09:04:48.827Z,4.40
2022-10-10T09:07:28.218Z,3.97
2022-10-10T09:10:08.643Z,3.70
2022-10-10T09:12:46.335Z,2.70
2022-10-10T09:15:21.954Z,3.20
2022-10-10T09:18:00.447Z,4.23
2022-10-10T09:20:49.462Z,3.90
2022-10-10T09:23:24.129Z,4.30
2022-10-10T09:25:58.804Z,4.10
2022-10-10T09:28:39.203Z,3.47
2022-10-10T09:31:12.995Z,3.80
2022-10-10T09:33:45.460Z,2.27
2022-10-10T09:36:18.526Z,2.97
2022-10-10T09:38:54.110Z,3.00
2022-10-10T09:41:28.253Z,2.80
2022-10-10T09:43:58.443Z,3.33
2022-10-10T09:46:27.612Z,3.30
2022-10-10T09:48:56.836Z,2.80
2022-10-10T09:51:25.802Z,2.50
2022-10-10T09:53:55.745Z,2.90
2022-10-10T09:56:26.979Z,3.00
2022-10-10T09:58:56.914Z,3.53
2022-10-10T10:01:28.911Z,2.77
2022-10-10T10:04:29.542Z,3.07
2022-10-10T10:07:09.003Z,3.30
2022-10-10T10:09:39.834Z,2.80
2022-10-10T10:12:08.481Z,3.07
2022-10-10T10:14:39.443Z,3.40
2022-10-10T10:17:10.180Z,2.80
2022-10-10T10:19:40.534Z,3.17
2022-10-10T10:22:26.991Z,3.47
2022-10-10T10:24:57.092Z,2.90
2022-10-10T10:27:28.186Z,3.23
2022-10-10T10:29:58.401Z,4.33
2022-10-10T10:32:46.520Z,3.23
2022-10-10T10:35:24.545Z,3.30
2022-10-10T10:38:22.536Z,2.40
2022-10-10T10:41:00.307Z,2.57
2022-10-10T10:43:47.667Z,4.60
2022-10-10T10:46:28.111Z,3.10
2022-10-10T10:49:02.872Z,3.67
2022-10-10T10:51:51.481Z,3.23
2022-10-10T10:54:39.445Z,3.47
2022-10-10T11:00:21.882Z,3.20
2022-10-10T11:03:38.455Z,3.43
2022-10-10T11:06:18.247Z,4.10
2022-10-10T11:08:59.089Z,2.60
2022-10-10T11:11:50.066Z,2.50
2022-10-10T11:14:31.693Z,3.10
2022-10-10T11:17:05.058Z,2.73
2022-10-10T11:19:39.470Z,3.33
2022-10-10T11:22:12.306Z,2.73
2022-10-10T11:24:46.338Z,3.63
2022-10-10T11:27:20.418Z,3.27
2022-10-10T11:29:58.717Z,2.20
2022-10-10T11:32:33.184Z,3.43
2022-10-10T11:35:15.429Z,2.50
2022-10-10T11:37:48.860Z,3.37
2022-10-10T11:40:33.438Z,3.07
2022-10-10T11:43:06.375Z,2.60
2022-10-10T11:45:44.801Z,3.00
2022-10-10T11:48:25.350Z,3.40
2022-10-10T11:50:57.822Z,2.50
2022-10-10T11:53:34.098Z,3.83
2022-10-10T11:56:11.566Z,2.53
2022-10-10T11:58:42.525Z,3.10
2022-10-10T12:01:17.456Z,2.97
2022-10-10T12:03:46.183Z,2.93
2022-10-10T12:06:20.708Z,2.90
2022-10-10T12:08:56.598Z,3.43
2022-10-10T12:11:31.461Z,2.70
2022-10-10T12:14:02.599Z,3.37
2022-10-10T12:16:36.453Z,2.80
2022-10-10T12:19:09.042Z,2.93
2022-10-10T12:21:55.584Z,2.70
2022-10-10T12:24:25.995Z,2.90
2022-10-10T12:27:31.176Z,3.47
2022-10-10T12:30:26.641Z,2.73
2022-10-10T12:32:56.958Z,2.80
2022-10-10T12:35:42.704Z,5.20
2022-10-10T12:38:20.618Z,3.30
2022-10-10T12:41:16.803Z,3.20
2022-10-10T12:43:50.453Z,3.27
2022-10-10T12:46:30.662Z,3.00
2022-10-10T12:49:17.721Z,4.10
2022-10-10T12:51:59.616Z,3.37
2022-10-10T12:54:33.591Z,4.17
2022-10-10T12:57:16.140Z,3.87
2022-10-10T12:59:44.895Z,3.83
2022-10-10T13:02:19.790Z,3.73
2022-10-10T13:04:52.557Z,4.07
2022-10-10T13:07:23.330Z,3.70
2022-10-10T13:09:54.013Z,2.33
2022-10-10T13:12:30.577Z,3.27
2022-10-10T13:14:59.660Z,3.00
2022-10-10T13:17:31.292Z,3.83
2022-10-10T13:20:02.692Z,3.53
2022-10-10T13:22:33.388Z,3.07
2022-10-10T13:25:07.487Z,2.73
2022-10-10T13:27:36.711Z,3.40
2022-10-10T13:30:08.246Z,4.40
2022-10-10T13:32:37.482Z,4.07
2022-10-10T13:35:14.659Z,3.70
2022-10-10T13:37:46.244Z,3.53
2022-10-10T13:40:16.554Z,3.40
2022-10-10T13:42:47.927Z,2.70
2022-10-10T13:45:37.063Z,3.00
2022-10-10T13:48:39.622Z,3.20
2022-10-10T13:51:11.389Z,8.87
2022-10-10T13:53:48.593Z,3.50
2022-10-10T13:56:20.804Z,4.17
2022-10-10T13:58:51.872Z,3.07
2022-10-10T14:01:34.628Z,3.87
2022-10-10T14:04:17.050Z,3.30
2022-10-10T14:06:57.549Z,4.53
2022-10-10T14:09:30.871Z,2.97
2022-10-10T14:12:03.266Z,3.77
2022-10-10T14:14:36.647Z,3.93
2022-10-10T14:17:06.820Z,5.33
2022-10-10T14:19:35.508Z,5.33
2022-10-10T14:22:06.261Z,4.13
2022-10-10T14:24:35.073Z,4.30
2022-10-10T14:27:15.514Z,3.60
2022-10-10T14:29:44.404Z,4.10
2022-10-10T14:32:14.580Z,4.27
2022-10-10T14:34:43.852Z,4.37
2022-10-10T14:37:19.897Z,3.70
2022-10-10T14:39:48.874Z,4.10
2022-10-10T14:42:18.999Z,2.90
2022-10-10T14:44:48.272Z,4.17
2022-10-10T14:47:19.030Z,3.00
2022-10-10T14:49:48.135Z,3.63
2022-10-10T14:52:18.203Z,3.30
2022-10-10T14:54:51.891Z,3.90
2022-10-10T14:57:22.504Z,4.00
2022-10-10T14:59:51.142Z,3.57
2022-10-10T15:02:21.050Z,3.70
2022-10-10T15:04:49.827Z,3.77
2022-10-10T15:07:20.530Z,3.50
2022-10-10T15:10:30.828Z,4.10
2022-10-10T15:12:41.308Z,3.97
2022-10-10T15:15:11.734Z,2.70
2022-10-10T15:17:40.956Z,5.27
2022-10-10T15:20:12.232Z,5.63
2022-10-10T15:22:45.427Z,3.90
2022-10-10T15:25:14.515Z,3.90
2022-10-10T15:27:43.180Z,4.20
2022-10-10T15:30:12.460Z,3.40
2022-10-10T15:32:41.847Z,4.83
2022-10-10T15:35:15.405Z,3.80
2022-10-10T15:37:46.417Z,4.03
2022-10-10T15:40:17.473Z,4.10
2022-10-10T15:42:46.204Z,4.30
2022-10-10T15:45:19.340Z,4.50
2022-10-10T15:48:00.514Z,4.17
2022-10-10T15:50:29.140Z,4.10
2022-10-10T15:52:59.219Z,4.70
2022-10-10T15:55:27.904Z,3.43
2022-10-10T15:57:56.683Z,4.70
2022-10-10T16:00:25.314Z,4.10
2022-10-10T16:02:54.063Z,3.47
2022-10-10T16:05:22.686Z,4.50
2022-10-10T16:07:53.501Z,3.70
2022-10-10T16:10:23.569Z,3.67
2022-10-10T16:12:52.315Z,4.40
2022-10-10T16:15:20.937Z,3.80
2022-10-10T16:17:49.708Z,4.27
2022-10-10T16:20:18.364Z,5.00
2022-10-10T16:22:47.146Z,4.57
2022-10-10T16:25:23.491Z,4.60
2022-10-10T16:27:53.925Z,4.17
2022-10-10T16:30:22.720Z,4.40
2022-10-10T16:32:51.460Z,5.03
2022-10-10T16:35:20.132Z,5.53
2022-10-10T16:37:48.939Z,4.73
2022-10-10T16:40:17.567Z,5.10
2022-10-10T16:42:46.242Z,5.37
2022-10-10T16:45:16.477Z,5.47
2022-10-10T16:47:45.121Z,5.40
2022-10-10T16:50:13.912Z,4.63
2022-10-10T16:52:42.433Z,4.83
2022-10-10T16:55:12.324Z,4.93
2022-10-10T16:57:41.493Z,4.80
2022-10-10T17:00:11.494Z,5.67
2022-10-10T17:02:42.453Z,5.70
2022-10-10T17:05:11.609Z,5.23
2022-10-10T17:07:40.460Z,5.50
2022-10-10T17:10:12.571Z,5.50
2022-10-10T17:12:44.012Z,4.73
2022-10-10T17:15:13.158Z,5.13
2022-10-10T17:17:43.343Z,5.00
2022-10-10T17:20:13.017Z,5.50
2022-10-10T17:22:42.080Z,6.43
2022-10-10T17:25:11.705Z,7.60
2022-10-10T17:27:42.284Z,6.50
2022-10-10T17:30:12.883Z,7.80
2022-10-10T17:32:46.397Z,6.10
2022-10-10T17:35:15.414Z,6.13
2022-10-10T17:37:44.369Z,6.70
2022-10-10T17:40:13.540Z,6.57
2022-10-10T17:42:43.456Z,7.00
2022-10-10T17:45:12.446Z,6.03
2022-10-10T17:47:43.708Z,5.50
2022-10-10T17:50:13.906Z,6.20
2022-10-10T17:52:42.615Z,5.50
2022-10-10T17:55:11.391Z,6.07
2022-10-10T17:57:40.294Z,4.93
2022-10-10T18:00:10.300Z,5.57
2022-10-10T18:02:39.060Z,5.80
2022-10-10T18:05:08.277Z,5.20
2022-10-10T18:07:38.522Z,5.73
2022-10-10T18:10:07.714Z,4.70
2022-10-10T18:12:36.628Z,5.60
2022-10-10T18:15:06.301Z,5.27
2022-10-10T18:17:35.040Z,5.43
2022-10-10T18:20:04.200Z,5.77
2022-10-10T18:22:32.827Z,4.93
2022-10-10T18:25:02.907Z,6.40
2022-10-10T18:27:31.532Z,6.03
2022-10-10T18:30:00.259Z,5.93
2022-10-10T18:32:28.919Z,6.70
2022-10-10T18:34:57.790Z,6.60
2022-10-10T18:37:26.605Z,5.77
2022-10-10T18:39:58.845Z,9.90
2022-10-10T18:42:29.608Z,5.73
2022-10-10T18:45:02.819Z,6.30
2022-10-10T18:47:31.951Z,7.50
2022-10-10T18:50:00.776Z,8.30
2022-10-10T18:52:29.946Z,6.50
2022-10-10T18:54:58.679Z,7.80
2022-10-10T18:57:28.737Z,6.53
2022-10-10T18:59:57.495Z,7.10
2022-10-10T19:02:26.748Z,6.00
2022-10-10T19:04:55.657Z,6.60
2022-10-10T19:07:24.416Z,6.43
2022-10-10T19:09:53.450Z,7.07
2022-10-10T19:12:22.056Z,6.37
2022-10-10T19:14:52.064Z,6.80
2022-10-10T19:17:20.953Z,6.63
2022-10-10T19:19:49.804Z,6.80
2022-10-10T19:22:18.594Z,6.37
2022-10-10T19:24:48.344Z,6.83
2022-10-10T19:27:17.157Z,6.30
2022-10-10T19:29:45.911Z,7.53
2022-10-10T19:32:16.916Z,6.57
2022-10-10T19:34:45.831Z,6.33
2022-10-10T19:37:14.589Z,5.57
2022-10-10T19:39:43.762Z,6.50
2022-10-10T19:42:12.427Z,6.70
2022-10-10T19:44:41.208Z,5.97
2022-10-10T19:47:10.285Z,6.17
2022-10-10T19:49:40.684Z,6.60
2022-10-10T19:52:09.786Z,6.50
2022-10-10T19:54:38.813Z,5.97
2022-10-10T19:57:07.829Z,4.97
2022-10-10T19:59:36.620Z,5.53
2022-10-10T20:02:05.292Z,7.00
2022-10-10T20:04:34.089Z,6.47
2022-10-10T20:07:04.202Z,5.87
2022-10-10T20:09:32.859Z,6.67
2022-10-10T20:12:01.497Z,5.67
2022-10-10T20:14:30.112Z,7.50
2022-10-10T20:16:58.917Z,7.00
2022-10-10T20:19:27.699Z,7.40
2022-10-10T20:21:56.686Z,5.93
2022-10-10T20:24:26.821Z,6.40
2022-10-10T20:26:56.210Z,6.30
2022-10-10T20:29:25.236Z,6.27
2022-10-10T20:31:53.958Z,6.83
2022-10-10T20:34:22.867Z,6.13
2022-10-10T20:36:52.350Z,7.00
2022-10-10T20:39:21.237Z,6.20
2022-10-10T20:41:55.857Z,5.30
2022-10-10T20:44:24.528Z,5.20
2022-10-10T20:46:53.996Z,4.53
2022-10-10T20:49:23.847Z,4.80
2022-10-10T20:51:53.020Z,5.00
2022-10-10T20:54:23.400Z,5.13
2022-10-10T20:56:53.600Z,3.93
2022-10-10T20:59:24.717Z,4.57
2022-10-10T21:01:53.495Z,4.60
2022-10-10T21:04:22.122Z,5.23
2022-10-10T21:06:51.298Z,4.20
2022-10-10T21:09:20.109Z,5.50
2022-10-10T21:11:52.669Z,4.93
2022-10-10T21:14:21.594Z,4.63
2022-10-10T21:16:51.486Z,4.20
2022-10-10T21:19:20.257Z,4.40
2022-10-10T21:21:48.869Z,4.47
2022-10-10T21:24:17.507Z,4.07
2022-10-10T21:26:49.129Z,4.73
2022-10-10T21:29:19.700Z,3.43
2022-10-10T21:31:48.355Z,6.00
2022-10-10T21:34:18.896Z,3.80
2022-10-10T21:36:47.899Z,4.10
2022-10-10T21:39:16.447Z,3.80
2022-10-10T21:41:45.014Z,4.70
2022-10-10T21:44:15.969Z,4.30
2022-10-10T21:46:46.137Z,5.90
2022-10-10T21:49:14.890Z,4.00
2022-10-10T21:51:45.670Z,3.87
2022-10-10T21:54:14.567Z,4.67
2022-10-10T21:56:43.108Z,4.70
2022-10-10T21:59:12.831Z,4.70
2022-10-10T22:01:41.429Z,5.50
2022-10-10T22:04:11.954Z,4.37
2022-10-10T22:06:40.700Z,4.10
2022-10-10T22:09:09.370Z,4.33
2022-10-10T22:11:38.103Z,5.00
2022-10-10T22:14:07.079Z,4.90
2022-10-10T22:16:36.251Z,6.10
2022-10-10T22:19:05.612Z,5.10
2022-10-10T22:21:37.744Z,5.37
2022-10-10T22:24:08.525Z,4.67
2022-10-10T22:26:37.172Z,5.37
2022-10-10T22:29:06.421Z,4.40
2022-10-10T22:31:37.965Z,5.80
2022-10-10T22:34:07.535Z,6.50
2022-10-10T22:36:37.455Z,4.90
2022-10-10T22:39:07.374Z,4.90
2022-10-10T22:41:36.311Z,5.60
2022-10-10T22:44:05.013Z,6.00
2022-10-10T22:46:34.190Z,6.07
2022-10-10T22:49:02.948Z,5.20
2022-10-10T22:51:31.690Z,5.40
2022-10-10T22:54:01.836Z,5.97
2022-10-10T22:56:30.426Z,5.60
2022-10-10T22:58:59.168Z,5.63
2022-10-10T23:01:28.165Z,5.13
2022-10-10T23:04:00.405Z,5.30
2022-10-10T23:06:29.606Z,4.43
2022-10-10T23:08:58.406Z,4.90
2022-10-10T23:11:28.687Z,4.80
2022-10-10T23:13:57.246Z,3.83
2022-10-10T23:16:26.140Z,4.30
2022-10-10T23:18:54.691Z,3.57
2022-10-10T23:21:23.342Z,3.57
2022-10-10T23:23:52.254Z,2.30
2022-10-10T23:26:20.930Z,2.90
2022-10-10T23:28:52.399Z,3.00
2022-10-10T23:31:21.048Z,2.93
2022-10-10T23:33:49.659Z,2.97
2022-10-10T23:36:18.417Z,3.43
2022-10-10T23:38:47.260Z,2.53
2022-10-10T23:41:18.346Z,2.50
2022-10-10T23:43:46.882Z,3.97
2022-10-10T23:46:16.932Z,2.70
2022-10-10T23:48:45.711Z,2.23
2022-10-10T23:51:14.471Z,3.10
2022-10-10T23:53:43.060Z,2.30
2022-10-10T23:56:13.313Z,2.03
2022-10-10T23:58:41.884Z,2.07
